createdAt,value
2023-05-21T00:06:27.775Z,8.73
2023-05-21T00:16:29.667Z,7.45
2023-05-21T00:26:32.183Z,7.87
2023-05-21T00:46:36.829Z,6.87
2023-05-21T00:56:39.818Z,8.00
2023-05-21T01:06:42.861Z,7.25
2023-05-21T01:16:46.985Z,7.30
2023-05-21T01:26:49.668Z,7.05
2023-05-21T01:36:59.905Z,7.90
2023-05-21T01:47:04.750Z,7.93
2023-05-21T01:57:06.799Z,6.80
2023-05-21T02:07:08.527Z,7.47
2023-05-21T02:17:10.438Z,8.17
2023-05-21T02:27:13.751Z,7.67
2023-05-21T02:37:15.511Z,8.40
2023-05-21T02:47:18.462Z,8.03
2023-05-21T02:57:20.137Z,9.23
2023-05-21T03:07:21.851Z,9.03
2023-05-21T03:17:23.649Z,8.50
2023-05-21T03:27:26.009Z,9.47
2023-05-21T03:37:27.632Z,10.03
2023-05-21T03:47:29.474Z,9.70
2023-05-21T03:57:31.144Z,7.77
2023-05-21T04:07:32.759Z,8.07
2023-05-21T04:17:35.517Z,7.07
2023-05-21T04:27:37.645Z,7.00
2023-05-21T04:37:42.263Z,7.35
2023-05-21T04:47:44.466Z,6.50
2023-05-21T05:07:48.269Z,5.30
2023-05-21T05:17:50.619Z,5.28
2023-05-21T05:27:52.351Z,4.72
2023-05-21T05:37:59.076Z,3.92
2023-05-21T05:48:00.885Z,4.15
2023-05-21T05:58:02.589Z,4.97
2023-05-21T06:18:05.956Z,4.57
2023-05-21T06:28:07.802Z,3.85
2023-05-21T06:38:09.400Z,3.65
2023-05-21T06:48:12.443Z,5.38
2023-05-21T06:58:14.197Z,3.95
2023-05-21T07:08:16.133Z,4.25
2023-05-21T07:18:17.836Z,3.85
2023-05-21T07:28:20.466Z,4.18
2023-05-21T07:38:24.132Z,3.50
2023-05-21T07:48:27.068Z,4.32
2023-05-21T07:58:28.807Z,3.70
2023-05-21T08:08:30.637Z,4.70
2023-05-21T08:18:32.344Z,3.72
2023-05-21T08:28:35.683Z,3.75
2023-05-21T08:38:37.990Z,3.75
2023-05-21T08:48:41.855Z,3.60
2023-05-21T08:58:46.941Z,4.10
2023-05-21T09:08:59.839Z,3.45
2023-05-21T09:19:04.643Z,3.53
2023-05-21T09:29:06.746Z,3.47
2023-05-21T09:39:08.906Z,3.10
2023-05-21T09:49:24.960Z,3.60
2023-05-21T09:59:35.888Z,4.70
2023-05-21T10:09:37.998Z,3.90
2023-05-21T10:19:41.299Z,3.60
2023-05-21T10:29:44.472Z,3.90
2023-05-21T10:39:46.179Z,3.20
2023-05-21T10:50:18.853Z,2.83
2023-05-21T11:00:21.372Z,3.00
2023-05-21T11:10:45.380Z,2.80
2023-05-21T11:20:51.725Z,3.72
2023-05-21T11:31:25.996Z,9.87
2023-05-21T11:41:30.853Z,3.22
2023-05-21T11:51:33.652Z,4.55
2023-05-21T12:01:35.367Z,4.25
2023-05-21T12:11:43.506Z,3.60
2023-05-21T12:21:45.411Z,3.33
2023-05-21T12:31:51.901Z,3.10
2023-05-21T12:41:56.641Z,3.45
2023-05-21T12:51:58.340Z,3.30
2023-05-21T13:02:00.605Z,3.50
2023-05-21T13:12:02.240Z,3.55
2023-05-21T13:22:04.205Z,3.42
2023-05-21T13:32:06.190Z,4.30
2023-05-21T13:42:07.938Z,3.35
2023-05-21T13:52:10.207Z,3.60
2023-05-21T14:02:12.370Z,2.97
2023-05-21T14:12:14.057Z,3.53
2023-05-21T14:22:15.814Z,3.45
2023-05-21T14:32:18.570Z,3.00
2023-05-21T14:42:20.623Z,3.42
2023-05-21T14:52:22.292Z,3.00
2023-05-21T15:02:24.555Z,3.38
2023-05-21T15:12:27.369Z,3.58
2023-05-21T15:22:29.077Z,3.58
2023-05-21T15:32:31.711Z,3.95
2023-05-21T15:42:35.539Z,3.13
2023-05-21T15:52:37.321Z,3.75
2023-05-21T16:02:40.865Z,3.50
2023-05-21T16:12:42.596Z,3.58
2023-05-21T16:22:44.547Z,3.20
2023-05-21T16:32:46.839Z,3.63
2023-05-21T16:42:48.664Z,3.50
2023-05-21T16:52:50.461Z,3.13
2023-05-21T17:02:53.843Z,3.75
2023-05-21T17:12:56.412Z,4.03
2023-05-21T17:22:59.097Z,3.53
2023-05-21T17:33:03.823Z,3.38
2023-05-21T17:43:08.047Z,4.05
2023-05-21T17:53:10.887Z,4.22
2023-05-21T18:03:12.611Z,7.65
2023-05-21T18:13:14.725Z,6.07
2023-05-21T18:23:17.325Z,7.75
2023-05-21T18:33:19.350Z,5.80
2023-05-21T18:43:21.161Z,5.78
2023-05-21T18:53:23.214Z,5.68
2023-05-21T19:03:25.009Z,6.18
2023-05-21T19:13:26.832Z,6.18
2023-05-21T19:23:44.842Z,7.57
2023-05-21T19:33:55.443Z,6.75
2023-05-21T19:44:03.592Z,7.47
2023-05-21T19:54:06.450Z,8.18
2023-05-21T20:04:08.295Z,8.85
2023-05-21T20:14:12.761Z,7.55
2023-05-21T20:24:15.216Z,7.68
2023-05-21T20:34:27.482Z,8.43
2023-05-21T20:44:30.201Z,6.95
2023-05-21T20:54:31.908Z,8.32
2023-05-21T21:24:40.009Z,7.35
2023-05-21T21:34:43.799Z,7.82
2023-05-21T21:44:45.748Z,7.50
2023-05-21T21:54:48.585Z,7.22
2023-05-21T22:04:57.144Z,7.65
2023-05-21T22:14:59.416Z,6.75
2023-05-21T22:25:02.686Z,7.22
2023-05-21T22:35:06.613Z,7.63
2023-05-21T22:45:09.222Z,7.72
2023-05-21T22:55:11.767Z,7.55
2023-05-21T23:05:13.868Z,7.57
2023-05-21T23:25:18.188Z,7.57
2023-05-21T23:35:25.131Z,6.77
2023-05-21T23:45:27.268Z,7.25
